Wetterdaten: Woche 06.03.17 - 12.03.17 (KW10)
Datum Zeit Temp. A. Feuchte A. Luftdruck Regen Wind Richtung Taupunkt Windchill Windben
06.03.2017 00:00 5,7 C 80 % 1002,2 hPa 0,0 l/m 0,0 km/h N 2,4 C 5,7 C 1,2 km/h
06.03.2017 01:00 4,4 C 81 % 1002,7 hPa 0,0 l/m 0,0 km/h N 1,3 C 4,4 C 0,8 km/h
06.03.2017 02:00 3,4 C 82 % 1003,3 hPa 0,0 l/m 0,0 km/h N 0,6 C 3,4 C 0,4 km/h
06.03.2017 03:00 6,1 C 77 % 1003,5 hPa 0,3 l/m 9,7 km/h N 2,3 C 3,5 C 29,4 km/h
06.03.2017 04:00 7,8 C 69 % 1003,8 hPa 0,0 l/m 9,8 km/h N 2,5 C 5,4 C 32,2 km/h
06.03.2017 05:00 8,1 C 67 % 1004,2 hPa 0,0 l/m 9,0 km/h N 2,3 C 6,2 C 27,8 km/h
06.03.2017 06:00 7,8 C 68 % 1004,7 hPa 0,0 l/m 10,7 km/h N 2,1 C 4,8 C 31,0 km/h
06.03.2017 07:00 7,8 C 66 % 1004,7 hPa 0,0 l/m 14,9 km/h N 1,8 C 2,5 C 37,4 km/h
06.03.2017 08:00 7,9 C 64 % 1005,3 hPa 0,0 l/m 9,7 km/h N 1,6 C 5,5 C 31,4 km/h
06.03.2017 09:00 8,1 C 63 % 1005,3 hPa 0,0 l/m 12,0 km/h N 1,4 C 4,4 C 28,6 km/h
06.03.2017 10:00 8,5 C 60 % 1005,4 hPa 0,0 l/m 12,4 km/h N 1,2 C 4,6 C 32,6 km/h
06.03.2017 11:00 9,3 C 56 % 1005,4 hPa 0,0 l/m 7,8 km/h N 0,8 C 8,3 C 24,9 km/h
06.03.2017 12:00 10,2 C 51 % 1005,0 hPa 0,0 l/m 5,9 km/h N 0,5 C 10,1 C 22,9 km/h
06.03.2017 13:00 10,4 C 49 % 1004,4 hPa 0,0 l/m 6,4 km/h N 0,1 C 9,8 C 21,4 km/h
06.03.2017 14:00 11,5 C 45 % 1003,5 hPa 0,0 l/m 6,4 km/h N -0,1 C 11,6 C 21,7 km/h
06.03.2017 15:00 11,6 C 46 % 1003,1 hPa 0,0 l/m 5,6 km/h N 0,4 C 11,7 C 18,5 km/h
06.03.2017 16:00 11,5 C 44 % 1002,4 hPa 0,0 l/m 4,0 km/h N -0,4 C 11,5 C 15,3 km/h
06.03.2017 17:00 10,6 C 46 % 1002,3 hPa 0,0 l/m 0,0 km/h N -0,5 C 10,6 C 4,8 km/h
06.03.2017 18:00 9,3 C 54 % 1002,4 hPa 0,0 l/m 0,0 km/h N 0,4 C 9,3 C 4,0 km/h
06.03.2017 19:00 8,3 C 62 % 1002,0 hPa 0,0 l/m 0,0 km/h N 1,4 C 8,3 C 5,6 km/h
06.03.2017 20:00 7,0 C 64 % 1001,7 hPa 0,0 l/m 0,0 km/h N 0,6 C 7,0 C 4,0 km/h
06.03.2017 21:00 5,2 C 70 % 1001,6 hPa 0,0 l/m 0,0 km/h N 0,2 C 5,2 C 1,6 km/h
06.03.2017 22:00 4,1 C 73 % 1001,5 hPa 0,0 l/m 0,0 km/h N -0,4 C 4,1 C 0,8 km/h
06.03.2017 23:00 2,5 C 76 % 1001,8 hPa 0,0 l/m 0,0 km/h N -1,3 C 2,5 C 0,0 km/h
07.03.2017 00:00 1,8 C 79 % 1002,3 hPa 0,0 l/m 0,0 km/h N -1,5 C 1,8 C 0,0 km/h
07.03.2017 01:00 1,8 C 82 % 1003,1 hPa 0,0 l/m 0,0 km/h N -1,1 C 1,8 C 0,8 km/h
07.03.2017 02:00 2,1 C 83 % 1003,5 hPa 0,0 l/m 0,0 km/h N -0,5 C 2,1 C 3,2 km/h
07.03.2017 03:00 2,5 C 83 % 1004,1 hPa 0,0 l/m 0,0 km/h N -0,0 C 2,5 C 4,0 km/h
07.03.2017 04:00 5,4 C 75 % 1004,7 hPa 0,0 l/m 3,2 km/h N 1,3 C 5,4 C 13,7 km/h
07.03.2017 05:00 6,3 C 73 % 1005,4 hPa 0,0 l/m 8,1 km/h N 1,7 C 5,0 C 27,4 km/h
07.03.2017 06:00 5,8 C 76 % 1006,1 hPa 0,0 l/m 2,4 km/h N 1,9 C 5,8 C 15,3 km/h
07.03.2017 07:00 5,4 C 78 % 1006,9 hPa 0,0 l/m 3,1 km/h N 2,0 C 5,1 C 15,3 km/h
07.03.2017 08:00 7,2 C 72 % 1007,9 hPa 0,0 l/m 10,0 km/h N 2,4 C 4,5 C 24,1 km/h
07.03.2017 09:00 8,2 C 67 % 1008,4 hPa 0,0 l/m 8,6 km/h N 2,5 C 6,5 C 25,4 km/h
07.03.2017 10:00 8,9 C 64 % 1009,0 hPa 0,0 l/m 10,4 km/h N 2,4 C 6,2 C 26,6 km/h
07.03.2017 11:00 9,6 C 60 % 1009,2 hPa 0,0 l/m 12,1 km/h N 2,1 C 6,0 C 28,6 km/h
07.03.2017 12:00 9,4 C 60 % 1009,5 hPa 0,0 l/m 10,7 km/h N 1,9 C 6,5 C 25,7 km/h
07.03.2017 13:00 9,3 C 59 % 1010,1 hPa 0,0 l/m 11,9 km/h N 1,6 C 5,8 C 25,7 km/h
07.03.2017 14:00 9,4 C 59 % 1010,5 hPa 0,0 l/m 9,8 km/h N 1,8 C 7,2 C 22,5 km/h
07.03.2017 15:00 9,7 C 57 % 1010,7 hPa 0,0 l/m 9,8 km/h N 1,5 C 7,4 C 25,8 km/h
07.03.2017 16:00 9,0 C 63 % 1012,0 hPa 0,0 l/m 9,6 km/h N 2,2 C 6,9 C 26,2 km/h
07.03.2017 17:00 7,7 C 69 % 1012,9 hPa 0,0 l/m 6,4 km/h N 2,5 C 7,4 C 18,1 km/h
07.03.2017 18:00 6,9 C 73 % 1014,0 hPa 0,0 l/m 8,5 km/h N 2,3 C 5,3 C 20,9 km/h
07.03.2017 19:00 6,6 C 74 % 1014,8 hPa 0,0 l/m 9,9 km/h N 2,3 C 4,0 C 24,1 km/h
07.03.2017 20:00 5,9 C 77 % 1015,6 hPa 0,0 l/m 7,5 km/h N 2,1 C 5,0 C 20,1 km/h
07.03.2017 21:00 6,1 C 77 % 1016,7 hPa 0,0 l/m 6,0 km/h N 2,4 C 5,8 C 15,7 km/h
07.03.2017 22:00 6,0 C 78 % 1017,5 hPa 0,0 l/m 5,9 km/h N 2,5 C 5,9 C 16,9 km/h
07.03.2017 23:00 6,0 C 78 % 1018,5 hPa 0,0 l/m 4,6 km/h N 2,4 C 6,0 C 14,1 km/h
08.03.2017 00:00 5,4 C 78 % 1019,3 hPa 0,0 l/m 3,0 km/h N 1,9 C 5,4 C 11,7 km/h
08.03.2017 01:00 5,2 C 80 % 1020,2 hPa 0,0 l/m 4,8 km/h N 2,0 C 5,2 C 12,1 km/h
08.03.2017 02:00 5,0 C 77 % 1021,0 hPa 0,0 l/m 9,3 km/h N 1,4 C 2,6 C 23,3 km/h
08.03.2017 03:00 4,6 C 77 % 1021,5 hPa 0,0 l/m 6,1 km/h N 0,9 C 4,2 C 18,1 km/h
08.03.2017 04:00 4,4 C 76 % 1022,0 hPa 0,0 l/m 2,1 km/h N 0,5 C 4,4 C 11,3 km/h
08.03.2017 05:00 4,3 C 76 % 1022,6 hPa 0,0 l/m 1,4 km/h N 0,4 C 4,3 C 8,8 km/h
08.03.2017 06:00 3,8 C 79 % 1023,4 hPa 0,0 l/m 2,2 km/h N 0,4 C 3,8 C 9,3 km/h
08.03.2017 07:00 4,4 C 80 % 1024,0 hPa 0,0 l/m 8,9 km/h N 1,3 C 2,0 C 21,3 km/h
08.03.2017 08:00 5,4 C 77 % 1024,5 hPa 0,0 l/m 11,5 km/h N 1,8 C 1,6 C 24,1 km/h
08.03.2017 09:00 6,5 C 71 % 1024,8 hPa 0,0 l/m 8,5 km/h N 1,7 C 4,9 C 23,7 km/h
08.03.2017 10:00 7,9 C 66 % 1024,6 hPa 0,0 l/m 7,4 km/h N 1,9 C 7,1 C 18,9 km/h
08.03.2017 11:00 8,8 C 63 % 1024,2 hPa 0,0 l/m 8,7 km/h N 2,1 C 7,2 C 20,9 km/h
08.03.2017 12:00 9,6 C 59 % 1023,8 hPa 0,0 l/m 8,6 km/h N 2,0 C 8,1 C 22,1 km/h
08.03.2017 13:00 10,0 C 57 % 1023,2 hPa 0,0 l/m 5,4 km/h N 1,8 C 10,0 C 14,9 km/h
08.03.2017 14:00 10,9 C 53 % 1023,0 hPa 0,0 l/m 6,9 km/h N 1,7 C 10,2 C 21,3 km/h
08.03.2017 15:00 10,9 C 51 % 1022,8 hPa 0,0 l/m 9,0 km/h N 1,3 C 9,2 C 22,5 km/h
08.03.2017 16:00 10,4 C 53 % 1022,3 hPa 0,0 l/m 6,5 km/h N 1,2 C 10,1 C 16,5 km/h
08.03.2017 17:00 9,5 C 55 % 1022,1 hPa 0,0 l/m 2,5 km/h N 0,8 C 9,5 C 10,1 km/h
08.03.2017 18:00 7,7 C 56 % 1022,3 hPa 0,0 l/m 0,0 km/h N -0,4 C 7,7 C 1,2 km/h
08.03.2017 19:00 5,0 C 63 % 1021,8 hPa 0,0 l/m 0,0 km/h N -1,5 C 5,0 C 0,0 km/h
08.03.2017 20:00 3,2 C 71 % 1021,5 hPa 0,0 l/m 0,0 km/h N -1,5 C 3,2 C 0,4 km/h
08.03.2017 21:00 3,1 C 76 % 1020,9 hPa 0,0 l/m 0,0 km/h N -0,8 C 3,1 C 0,4 km/h
08.03.2017 22:00 2,9 C 75 % 1020,7 hPa 0,0 l/m 0,0 km/h N -1,1 C 2,9 C 0,0 km/h
08.03.2017 23:00 1,8 C 77 % 1020,0 hPa 0,0 l/m 0,0 km/h N -1,9 C 1,8 C 0,0 km/h
09.03.2017 00:00 1,3 C 80 % 1019,6 hPa 0,0 l/m 0,0 km/h N -1,8 C 1,3 C 0,0 km/h
09.03.2017 01:00 1,6 C 82 % 1019,6 hPa 0,0 l/m 0,1 km/h N -1,2 C 1,6 C 2,4 km/h
09.03.2017 02:00 3,1 C 83 % 1019,1 hPa 2,1 l/m 0,0 km/h N 0,4 C 3,1 C 1,2 km/h
09.03.2017 03:00 4,1 C 83 % 1018,0 hPa 0,5 l/m 0,0 km/h N 1,4 C 4,1 C 0,4 km/h
09.03.2017 04:00 4,4 C 83 % 1017,4 hPa 0,0 l/m 0,3 km/h N 1,8 C 4,4 C 4,0 km/h
09.03.2017 05:00 4,7 C 83 % 1017,2 hPa 0,3 l/m 0,1 km/h N 2,0 C 4,7 C 2,0 km/h
09.03.2017 06:00 4,9 C 83 % 1017,6 hPa 0,8 l/m 0,0 km/h N 2,3 C 4,9 C 1,2 km/h
09.03.2017 07:00 6,1 C 83 % 1018,2 hPa 0,0 l/m 1,7 km/h N 3,5 C 6,1 C 7,3 km/h
09.03.2017 08:00 9,1 C 83 % 1018,4 hPa 0,0 l/m 5,3 km/h N 6,4 C 8,6 C 20,9 km/h
09.03.2017 09:00 11,1 C 77 % 1018,5 hPa 0,0 l/m 8,8 km/h N 7,1 C 9,5 C 22,5 km/h
09.03.2017 10:00 11,6 C 71 % 1018,6 hPa 0,0 l/m 8,6 km/h N 6,6 C 10,3 C 20,9 km/h
09.03.2017 11:00 12,6 C 69 % 1018,5 hPa 0,0 l/m 8,0 km/h N 7,0 C 11,7 C 18,9 km/h
09.03.2017 12:00 13,4 C 64 % 1018,1 hPa 0,0 l/m 7,9 km/h N 6,7 C 12,5 C 19,3 km/h
09.03.2017 13:00 13,8 C 61 % 1017,4 hPa 0,0 l/m 2,6 km/h N 6,4 C 13,8 C 12,1 km/h
09.03.2017 14:00 13,6 C 62 % 1017,1 hPa 0,0 l/m 2,7 km/h N 6,5 C 13,6 C 12,1 km/h
09.03.2017 15:00 13,6 C 61 % 1016,9 hPa 0,0 l/m 3,8 km/h N 6,2 C 13,6 C 13,7 km/h
09.03.2017 16:00 13,1 C 63 % 1016,9 hPa 0,0 l/m 4,0 km/h N 6,1 C 13,1 C 15,3 km/h
09.03.2017 17:00 12,2 C 67 % 1016,7 hPa 0,0 l/m 1,1 km/h N 6,2 C 12,2 C 8,0 km/h
09.03.2017 18:00 11,7 C 69 % 1016,8 hPa 0,0 l/m 0,6 km/h N 6,2 C 11,7 C 6,4 km/h
09.03.2017 19:00 11,3 C 72 % 1016,8 hPa 0,0 l/m 3,7 km/h N 6,4 C 11,3 C 12,1 km/h
09.03.2017 20:00 10,9 C 71 % 1016,3 hPa 0,0 l/m 4,6 km/h N 5,7 C 10,9 C 18,5 km/h
09.03.2017 21:00 10,4 C 70 % 1015,8 hPa 0,0 l/m 1,5 km/h N 5,1 C 10,4 C 9,3 km/h
09.03.2017 22:00 10,1 C 71 % 1015,2 hPa 0,0 l/m 1,4 km/h N 5,1 C 10,1 C 8,9 km/h
09.03.2017 23:00 9,7 C 72 % 1014,8 hPa 0,5 l/m 0,0 km/h N 4,9 C 9,7 C 1,2 km/h
10.03.2017 00:00 8,8 C 79 % 1014,8 hPa 1,6 l/m 1,8 km/h N 5,3 C 8,8 C 10,5 km/h
10.03.2017 01:00 8,1 C 81 % 1013,9 hPa 1,0 l/m 3,5 km/h N 5,1 C 8,1 C 16,5 km/h
10.03.2017 02:00 8,3 C 79 % 1013,8 hPa 0,0 l/m 8,9 km/h N 4,8 C 6,1 C 25,8 km/h
10.03.2017 03:00 8,2 C 75 % 1014,1 hPa 0,0 l/m 13,5 km/h N 4,0 C 3,9 C 29,0 km/h
10.03.2017 04:00 7,6 C 74 % 1014,6 hPa 0,0 l/m 12,3 km/h N 3,1 C 3,7 C 31,0 km/h
10.03.2017 05:00 6,6 C 73 % 1015,5 hPa 0,0 l/m 15,3 km/h N 2,2 C 0,9 C 33,0 km/h
10.03.2017 06:00 6,3 C 73 % 1015,8 hPa 0,0 l/m 15,1 km/h N 1,9 C 0,6 C 33,0 km/h
10.03.2017 07:00 6,9 C 70 % 1016,1 hPa 0,0 l/m 15,5 km/h N 1,9 C 1,2 C 34,2 km/h
10.03.2017 08:00 7,1 C 72 % 1016,3 hPa 0,0 l/m 14,9 km/h N 2,4 C 1,7 C 36,6 km/h
10.03.2017 09:00 6,7 C 77 % 1016,9 hPa 0,5 l/m 15,7 km/h N 3,0 C 0,8 C 33,0 km/h
10.03.2017 10:00 6,8 C 77 % 1017,4 hPa 0,0 l/m 14,0 km/h N 3,1 C 1,7 C 34,6 km/h
10.03.2017 11:00 7,3 C 73 % 1017,9 hPa 0,0 l/m 13,6 km/h N 2,7 C 2,5 C 29,4 km/h
10.03.2017 12:00 7,2 C 74 % 1018,0 hPa 0,3 l/m 14,9 km/h N 2,9 C 1,8 C 32,2 km/h
10.03.2017 13:00 6,9 C 75 % 1018,3 hPa 0,0 l/m 11,9 km/h N 2,8 C 3,0 C 29,4 km/h
10.03.2017 14:00 6,5 C 79 % 1018,8 hPa 0,8 l/m 12,5 km/h N 3,1 C 2,3 C 25,8 km/h
10.03.2017 15:00 6,3 C 80 % 1019,3 hPa 0,0 l/m 14,4 km/h N 3,0 C 1,0 C 33,0 km/h
10.03.2017 16:00 6,6 C 77 % 1020,3 hPa 0,0 l/m 14,3 km/h N 2,8 C 1,4 C 32,2 km/h
10.03.2017 17:00 6,4 C 76 % 1021,2 hPa 0,0 l/m 13,8 km/h N 2,5 C 1,4 C 33,4 km/h
10.03.2017 18:00 6,2 C 75 % 1021,9 hPa 0,0 l/m 13,0 km/h N 2,2 C 1,7 C 31,4 km/h
10.03.2017 19:00 6,4 C 74 % 1022,7 hPa 0,0 l/m 12,3 km/h N 2,0 C 2,1 C 28,2 km/h
10.03.2017 20:00 6,3 C 74 % 1023,1 hPa 0,0 l/m 12,9 km/h N 2,0 C 1,7 C 30,2 km/h
10.03.2017 21:00 6,2 C 73 % 1023,6 hPa 0,0 l/m 10,9 km/h N 1,6 C 2,8 C 25,3 km/h
10.03.2017 22:00 5,6 C 72 % 1024,0 hPa 0,0 l/m 10,2 km/h N 0,9 C 2,7 C 26,5 km/h
10.03.2017 23:00 5,2 C 74 % 1024,2 hPa 0,0 l/m 9,1 km/h N 0,8 C 2,9 C 24,1 km/h
11.03.2017 00:00 5,3 C 74 % 1024,3 hPa 0,0 l/m 11,3 km/h N 1,0 C 1,6 C 27,4 km/h
11.03.2017 01:00 5,4 C 73 % 1024,5 hPa 0,0 l/m 10,2 km/h N 1,0 C 2,4 C 25,7 km/h
11.03.2017 02:00 5,4 C 73 % 1024,6 hPa 0,0 l/m 11,1 km/h N 1,0 C 1,8 C 25,3 km/h
11.03.2017 03:00 5,2 C 73 % 1024,5 hPa 0,0 l/m 8,0 km/h N 0,8 C 3,9 C 20,9 km/h
11.03.2017 04:00 5,1 C 74 % 1024,4 hPa 0,0 l/m 9,0 km/h N 0,8 C 3,0 C 22,5 km/h
11.03.2017 05:00 5,2 C 73 % 1024,4 hPa 0,0 l/m 8,8 km/h N 0,8 C 3,2 C 18,9 km/h
11.03.2017 06:00 5,0 C 74 % 1024,6 hPa 0,0 l/m 6,0 km/h N 0,8 C 4,9 C 16,9 km/h
11.03.2017 07:00 5,3 C 73 % 1024,8 hPa 0,0 l/m 6,9 km/h N 0,7 C 4,7 C 18,9 km/h
11.03.2017 08:00 5,9 C 71 % 1025,1 hPa 0,0 l/m 7,8 km/h N 1,1 C 4,7 C 20,1 km/h
11.03.2017 09:00 6,6 C 70 % 1025,2 hPa 0,0 l/m 8,3 km/h N 1,5 C 5,1 C 20,1 km/h
11.03.2017 10:00 7,3 C 68 % 1024,8 hPa 0,0 l/m 8,6 km/h N 1,7 C 5,5 C 22,9 km/h
11.03.2017 11:00 8,3 C 61 % 1024,2 hPa 0,0 l/m 10,0 km/h N 1,3 C 5,8 C 23,3 km/h
11.03.2017 12:00 8,6 C 59 % 1023,4 hPa 0,0 l/m 10,8 km/h N 1,1 C 5,5 C 26,6 km/h
11.03.2017 13:00 8,9 C 58 % 1022,8 hPa 0,0 l/m 8,7 km/h N 1,0 C 7,3 C 21,7 km/h
11.03.2017 14:00 9,4 C 54 % 1022,1 hPa 0,0 l/m 10,1 km/h N 0,5 C 6,9 C 22,1 km/h
11.03.2017 15:00 9,9 C 51 % 1021,4 hPa 0,0 l/m 8,5 km/h N 0,2 C 8,4 C 21,3 km/h
11.03.2017 16:00 9,2 C 53 % 1021,3 hPa 0,0 l/m 8,2 km/h N 0,2 C 7,9 C 20,9 km/h
11.03.2017 17:00 8,5 C 55 % 1021,3 hPa 0,0 l/m 4,7 km/h N -0,0 C 8,5 C 14,9 km/h
11.03.2017 18:00 8,2 C 56 % 1021,3 hPa 0,0 l/m 3,7 km/h N -0,2 C 8,2 C 13,7 km/h
11.03.2017 19:00 7,8 C 58 % 1021,3 hPa 0,0 l/m 1,2 km/h N -0,0 C 7,8 C 8,9 km/h
11.03.2017 20:00 7,0 C 60 % 1021,3 hPa 0,0 l/m 0,1 km/h N -0,3 C 7,0 C 3,2 km/h
11.03.2017 21:00 6,5 C 62 % 1021,1 hPa 0,0 l/m 0,2 km/h N -0,3 C 6,5 C 4,0 km/h
11.03.2017 22:00 6,3 C 63 % 1021,2 hPa 0,0 l/m 1,1 km/h N -0,2 C 6,3 C 5,6 km/h
11.03.2017 23:00 6,1 C 65 % 1021,1 hPa 0,0 l/m 0,1 km/h N -0,0 C 6,1 C 3,6 km/h
12.03.2017 00:00 5,8 C 68 % 1020,9 hPa 0,0 l/m 2,3 km/h N 0,2 C 5,8 C 13,7 km/h
12.03.2017 01:00 4,7 C 75 % 1020,8 hPa 0,0 l/m 0,5 km/h N 0,6 C 4,7 C 6,8 km/h
12.03.2017 02:00 4,0 C 78 % 1020,3 hPa 0,0 l/m 0,0 km/h N 0,5 C 4,0 C 1,6 km/h
12.03.2017 03:00 4,0 C 79 % 1020,0 hPa 0,0 l/m 0,6 km/h N 0,6 C 4,0 C 5,2 km/h
12.03.2017 04:00 4,0 C 75 % 1019,8 hPa 0,0 l/m 1,2 km/h N -0,0 C 4,0 C 6,8 km/h
12.03.2017 05:00 4,1 C 70 % 1019,6 hPa 0,0 l/m 3,5 km/h N -0,8 C 4,1 C 12,5 km/h
12.03.2017 06:00 3,8 C 72 % 1019,7 hPa 0,0 l/m 3,0 km/h N -0,9 C 3,8 C 12,5 km/h
12.03.2017 07:00 3,7 C 74 % 1019,9 hPa 0,0 l/m 3,5 km/h N -0,6 C 3,7 C 12,1 km/h
12.03.2017 08:00 4,4 C 72 % 1020,0 hPa 0,0 l/m 4,8 km/h N -0,3 C 4,4 C 14,9 km/h
12.03.2017 09:00 5,0 C 68 % 1020,1 hPa 0,0 l/m 5,1 km/h N -0,4 C 5,0 C 15,3 km/h
12.03.2017 10:00 6,0 C 65 % 1019,9 hPa 0,0 l/m 4,8 km/h N 0,0 C 6,0 C 13,3 km/h
12.03.2017 11:00 6,0 C 57 % 1019,8 hPa 0,0 l/m 5,3 km/h N -1,9 C 6,0 C 15,7 km/h
12.03.2017 12:00 6,6 C 55 % 1019,5 hPa 0,0 l/m 5,3 km/h N -1,8 C 6,6 C 16,1 km/h
12.03.2017 13:00 6,8 C 56 % 1019,0 hPa 0,0 l/m 4,7 km/h N -1,3 C 6,8 C 16,5 km/h
12.03.2017 14:00 7,2 C 53 % 1019,0 hPa 0,0 l/m 6,6 km/h N -1,9 C 6,8 C 19,3 km/h
12.03.2017 15:00 7,2 C 51 % 1018,6 hPa 0,0 l/m 5,1 km/h N -2,3 C 7,2 C 16,5 km/h
12.03.2017 16:00 6,9 C 54 % 1018,5 hPa 0,0 l/m 4,8 km/h N -1,8 C 6,9 C 15,7 km/h
12.03.2017 17:00 6,7 C 55 % 1018,7 hPa 0,0 l/m 3,0 km/h N -1,7 C 6,7 C 9,7 km/h
12.03.2017 18:00 6,3 C 56 % 1018,9 hPa 0,0 l/m 2,8 km/h N -1,9 C 6,3 C 8,4 km/h
12.03.2017 19:00 6,1 C 56 % 1019,3 hPa 0,0 l/m 2,2 km/h N -1,9 C 6,1 C 8,0 km/h
12.03.2017 20:00 5,9 C 58 % 1019,5 hPa 0,0 l/m 2,0 km/h N -1,8 C 5,9 C 7,6 km/h
12.03.2017 21:00 5,7 C 60 % 1019,8 hPa 0,0 l/m 0,5 km/h N -1,4 C 5,7 C 5,6 km/h
12.03.2017 22:00 5,3 C 65 % 1020,0 hPa 0,0 l/m 0,4 km/h N -0,8 C 5,3 C 5,2 km/h
12.03.2017 23:00 4,6 C 66 % 1020,2 hPa 0,0 l/m 0,1 km/h N -1,2 C 4,6 C 1,2 km/h
Min-Datum _ 09.03.17 06.03.17 06.03.17 - 06.03.17 - 12.03.17 10.03.17 06.03.17
_ Min-Zeit 00:15 16:00 21:30 - 00:00 - 15:00 06:00 00:45
Minimum _ 1,3 C 43 % 1001,4 hPa - 0,0 km/h - -2,6 C -0,1 C 0,0 km/h
Max-Datum _ 09.03.17 06.03.17 11.03.17 09.03.17 10.03.17 - 09.03.17 09.03.17 10.03.17
_ Max-Zeit 13:30 03:00 08:00 02:15 04:30 - 09:00 13:30 04:45
Maximum _ 13,9 C 83 % 1025,2 hPa 2,1 l/m 18,7 km/h
N
- 7,4 C 13,9 C 46,7 km/h
N
Durchschnitt _ 7,0 C 69 % 1016,3 hPa #8,6 l/m 5,9 km/h N 1,4 C 5,7 C 16,5 km/h